Terminal Aerodrome Forecast
Issued by NWS

Home | Current Version | Previous Version | Text Only | Print | Product List | Glossary On
Versions: 1 2 3 4 5 6 7 8 9 10 11 12 13 14 15 16 17 18 19 20 21 22 23 24 25 26 27
000
FTUS44 KLIX 171100
TAFHUM
TAF
KHUM 171136Z 1712/1812 31003KT P6SM SCT050
     FM171500 02005KT P6SM BKN035
     FM171900 18005KT P6SM VCSH BKN035
     FM180000 21004KT P6SM BKN035
     FM180200 00000KT P6SM BKN035=

USA.gov is the U.S. government's official web portal to all federal, state and local government web resources and services.